Time;durP1;ratioP1;P1;durP2;ratioP2;P2;SDS_P1;SDS_P2;PMS_P1;PMS_P2;Temp;Humidity;BMP_temperature;BMP_pressure;BME280_temperature;BME280_humidity;BME280_pressure;Samples;Min_cycle;Max_cycle;Signal;HPM_P1;HPM_P2
2021/12/20 00:00:28;;;;;;;3.98;3.68;;;;;;;2.98;78.93;98836.30;461100;111;922682;-72
2021/12/20 00:01:31;;;;;;;3.49;3.28;;;;;;;2.99;78.98;98840.65;458698;112;922776;-73
2021/12/20 00:02:37;;;;;;;4.08;3.76;;;;;;;3.03;78.96;98846.46;461913;113;922813;-72
2021/12/20 00:03:41;;;;;;;3.21;2.95;;;;;;;3.04;78.87;98848.09;460780;111;922581;-72
2021/12/20 00:04:46;;;;;;;3.66;2.59;;;;;;;3.04;78.91;98845.41;460765;112;923143;-72
2021/12/20 00:05:49;;;;;;;3.19;2.90;;;;;;;3.06;78.92;98848.72;460866;112;922645;-72
2021/12/20 00:06:52;;;;;;;3.04;2.59;;;;;;;3.06;78.94;98844.17;461427;112;922693;-71
2021/12/20 00:07:56;;;;;;;3.60;3.34;;;;;;;3.06;78.90;98841.48;461701;112;922736;-72
2021/12/20 00:08:59;;;;;;;4.98;4.61;;;;;;;3.08;78.89;98846.66;461550;111;922580;-72
2021/12/20 00:10:04;;;;;;;6.01;5.50;;;;;;;3.08;78.79;98843.97;461381;113;922662;-72
2021/12/20 00:11:08;;;;;;;7.92;7.22;;;;;;;3.06;78.79;98836.09;461830;111;922656;-71
2021/12/20 00:12:11;;;;;;;8.76;8.06;;;;;;;3.08;78.76;98846.66;462506;112;923004;-72
2021/12/20 00:13:16;;;;;;;8.39;7.70;;;;;;;3.07;78.72;98837.75;463219;112;922920;-72
2021/12/20 00:14:19;;;;;;;9.91;9.04;;;;;;;3.06;78.73;98838.78;463449;112;922529;-72
2021/12/20 00:15:23;;;;;;;8.38;7.68;;;;;;;3.08;78.73;98841.28;463517;112;922618;-72
2021/12/20 00:16:26;;;;;;;8.99;8.24;;;;;;;3.07;78.73;98835.06;463488;112;922600;-71
2021/12/20 00:17:29;;;;;;;11.40;10.36;;;;;;;3.09;78.71;98841.05;464430;111;922643;-71
2021/12/20 00:18:32;;;;;;;8.93;8.14;;;;;;;3.10;78.68;98836.49;461515;114;922833;-72
2021/12/20 00:19:36;;;;;;;6.22;5.76;;;;;;;3.10;78.63;98826.55;459027;113;930795;-71
2021/12/20 00:20:39;;;;;;;6.49;5.99;;;;;;;3.10;78.57;98833.80;460805;112;922811;-71
2021/12/20 00:21:42;;;;;;;5.47;4.90;;;;;;;3.10;78.52;98840.02;459427;113;922667;-71
2021/12/20 00:22:45;;;;;;;5.51;5.11;;;;;;;3.11;78.53;98835.46;458613;114;922537;-71
2021/12/20 00:23:49;;;;;;;4.55;4.19;;;;;;;3.12;78.50;98837.13;459928;113;922998;-72
2021/12/20 00:24:52;;;;;;;4.58;4.24;;;;;;;3.13;78.45;98833.39;460021;112;922830;-71
2021/12/20 00:25:56;;;;;;;4.06;3.67;;;;;;;3.13;78.41;98836.92;461037;112;922924;-72
2021/12/20 00:27:01;;;;;;;3.01;2.78;;;;;;;3.12;78.40;98837.13;458222;114;923005;-71
2021/12/20 00:28:04;;;;;;;2.96;2.69;;;;;;;3.12;78.49;98848.72;460803;112;923250;-72
2021/12/20 00:29:08;;;;;;;2.66;2.46;;;;;;;3.12;78.46;98845.20;461554;112;922608;-71
2021/12/20 00:30:12;;;;;;;3.02;2.74;;;;;;;3.13;78.39;98836.09;461187;112;923670;-73
2021/12/20 00:31:15;;;;;;;2.79;2.56;;;;;;;3.13;78.36;98841.48;462532;112;922598;-72
2021/12/20 00:32:19;;;;;;;2.42;2.22;;;;;;;3.14;78.41;98841.24;461848;111;930417;-73
2021/12/20 00:33:22;;;;;;;3.11;2.82;;;;;;;3.15;78.34;98836.69;462210;111;922920;-72
2021/12/20 00:34:25;;;;;;;2.62;2.42;;;;;;;3.14;78.28;98830.47;461414;112;930371;-73
2021/12/20 00:35:29;;;;;;;3.06;2.86;;;;;;;3.15;78.26;98825.92;462734;111;922674;-72
2021/12/20 00:36:32;;;;;;;2.98;2.77;;;;;;;3.14;78.21;98833.16;462505;114;922985;-71
2021/12/20 00:40:22;;;;;;;2.58;2.38;;;;;;;3.14;78.21;98827.78;463359;112;923028;-71
2021/12/20 00:41:26;;;;;;;2.67;2.47;;;;;;;3.15;78.18;98823.22;461779;112;922633;-71
2021/12/20 00:42:29;;;;;;;3.44;2.98;;;;;;;3.15;78.18;98818.67;462006;111;923076;-71
2021/12/20 00:43:32;;;;;;;2.79;2.59;;;;;;;3.15;78.11;98820.53;459788;112;922629;-71
2021/12/20 00:44:35;;;;;;;3.25;2.91;;;;;;;3.13;78.06;98826.15;458833;112;923890;-71
2021/12/20 00:45:38;;;;;;;3.07;2.69;;;;;;;3.13;78.06;98822.63;460291;112;922692;-72
2021/12/20 00:46:42;;;;;;;3.46;3.16;;;;;;;3.12;78.12;98821.80;461530;113;922599;-71
2021/12/20 00:47:45;;;;;;;3.11;2.79;;;;;;;3.15;78.12;98820.53;461932;111;922750;-74
2021/12/20 00:48:49;;;;;;;3.89;3.48;;;;;;;3.15;78.13;98817.84;460630;113;922691;-70
2021/12/20 00:49:52;;;;;;;2.93;2.73;;;;;;;3.15;78.13;98821.36;460645;113;922740;-72
2021/12/20 00:50:55;;;;;;;3.46;2.84;;;;;;;3.18;78.16;98818.27;459730;112;922672;-72
2021/12/20 00:51:58;;;;;;;3.21;2.44;;;;;;;3.18;78.17;98815.57;462018;114;922511;-71
2021/12/20 00:53:02;;;;;;;3.47;3.17;;;;;;;3.19;78.12;98819.92;461314;112;922833;-71
2021/12/20 00:54:05;;;;;;;3.42;3.05;;;;;;;3.21;78.24;98819.69;460772;114;930492;-71
2021/12/20 00:55:09;;;;;;;3.68;2.74;;;;;;;3.23;78.14;98813.07;458393;113;922817;-72
2021/12/20 00:56:13;;;;;;;3.87;3.56;;;;;;;3.24;78.06;98817.42;454525;114;922652;-72
2021/12/20 00:57:16;;;;;;;3.81;3.27;;;;;;;3.24;78.06;98809.34;455647;114;923417;-72
2021/12/20 00:58:19;;;;;;;3.51;3.17;;;;;;;3.25;78.01;98815.56;454115;114;922625;-72
2021/12/20 00:59:22;;;;;;;3.32;2.83;;;;;;;3.26;78.04;98819.89;455646;114;923135;-72
2021/12/20 01:00:32;;;;;;;2.91;2.68;;;;;;;3.27;78.03;98821.55;455610;114;922469;-71
2021/12/20 01:01:36;;;;;;;4.99;2.84;;;;;;;3.27;78.00;98819.69;455049;115;922596;-71
2021/12/20 01:02:40;;;;;;;2.87;2.61;;;;;;;3.28;78.02;98823.20;456536;115;922916;-71
2021/12/20 01:03:43;;;;;;;3.38;2.91;;;;;;;3.29;78.08;98835.64;457245;114;922985;-72
2021/12/20 01:04:46;;;;;;;3.37;3.08;;;;;;;3.32;78.09;98830.65;452992;114;923145;-71
2021/12/20 01:05:50;;;;;;;3.17;2.88;;;;;;;3.33;78.03;98836.87;453715;114;930651;-71
2021/12/20 01:06:53;;;;;;;3.03;2.83;;;;;;;3.33;78.02;98832.31;451801;115;922449;-72
2021/12/20 01:08:00;;;;;;;3.25;2.98;;;;;;;3.34;78.01;98833.97;453407;113;922669;-72
2021/12/20 01:09:03;;;;;;;3.62;3.32;;;;;;;3.36;78.04;98841.84;454470;114;922549;-72
2021/12/20 01:10:09;;;;;;;3.23;2.91;;;;;;;3.37;78.05;98838.09;453919;113;923060;-72
2021/12/20 01:11:19;;;;;;;2.92;2.72;;;;;;;3.40;78.03;98844.94;452931;115;923021;-72
2021/12/20 01:12:20;;;;;;;2.93;2.73;;;;;;;3.40;77.99;98834.16;451581;113;922716;-72
2021/12/20 01:13:28;;;;;;;3.28;2.95;;;;;;;3.40;77.92;98832.30;455389;114;922562;-72
2021/12/20 01:14:32;;;;;;;2.88;2.67;;;;;;;3.40;77.80;98831.47;453600;114;922883;-72
2021/12/20 01:15:40;;;;;;;2.85;2.65;;;;;;;3.39;77.78;98836.02;445058;115;922796;-72
2021/12/20 01:16:43;;;;;;;3.15;2.86;;;;;;;3.39;77.77;98829.81;445521;115;922711;-72
2021/12/20 01:17:46;;;;;;;3.58;3.28;;;;;;;3.39;77.81;98837.89;454033;114;923269;-72
2021/12/20 01:18:49;;;;;;;3.06;2.82;;;;;;;3.38;77.69;98825.45;455362;113;922680;-72
2021/12/20 01:19:53;;;;;;;3.54;2.87;;;;;;;3.38;77.72;98836.23;454621;115;922720;-72
2021/12/20 01:20:56;;;;;;;3.00;2.80;;;;;;;3.39;77.77;98829.81;454542;115;922413;-71
2021/12/20 01:22:01;;;;;;;3.06;2.84;;;;;;;3.40;77.75;98837.69;455701;113;930526;-71
2021/12/20 01:23:05;;;;;;;3.67;3.39;;;;;;;3.41;77.74;98831.27;455278;114;922729;-71
2021/12/20 01:24:08;;;;;;;3.81;3.44;;;;;;;3.41;77.68;98825.88;455870;114;930525;-71
2021/12/20 01:25:12;;;;;;;3.70;3.40;;;;;;;3.43;77.67;98837.25;455720;113;922824;-72
2021/12/20 01:26:15;;;;;;;4.28;3.90;;;;;;;3.41;77.55;98833.96;456184;113;922396;-71
2021/12/20 01:27:19;;;;;;;4.14;3.77;;;;;;;3.41;77.58;98839.34;455834;113;922701;-71
2021/12/20 01:28:22;;;;;;;4.54;4.24;;;;;;;3.40;77.60;98834.99;452251;113;922691;-71
2021/12/20 01:29:25;;;;;;;3.77;3.46;;;;;;;3.42;77.63;98829.41;453494;115;923076;-72
2021/12/20 01:30:29;;;;;;;5.67;5.23;;;;;;;3.42;77.58;98824.81;454717;113;930732;-72
2021/12/20 01:31:32;;;;;;;6.30;5.80;;;;;;;3.43;77.59;98837.25;454340;114;922659;-71
2021/12/20 01:32:35;;;;;;;5.91;5.43;;;;;;;3.46;77.59;98836.84;454873;113;922969;-71
2021/12/20 01:33:39;;;;;;;4.96;4.58;;;;;;;3.45;77.62;98832.48;454603;115;922648;-72
2021/12/20 01:34:42;;;;;;;4.99;4.59;;;;;;;3.46;77.56;98833.32;454941;114;923025;-72
2021/12/20 01:35:45;;;;;;;4.63;4.28;;;;;;;3.46;77.53;98828.77;454746;113;922806;-72
2021/12/20 01:36:49;;;;;;;4.51;4.17;;;;;;;3.47;77.52;98825.03;455033;115;923089;-72
2021/12/20 01:37:53;;;;;;;4.24;3.77;;;;;;;3.47;77.48;98822.34;454353;114;922633;-71
2021/12/20 01:38:56;;;;;;;4.78;4.44;;;;;;;3.47;77.52;98825.03;456208;113;922668;-72
2021/12/20 01:40:00;;;;;;;6.57;6.07;;;;;;;3.48;77.61;98829.36;456256;113;922803;-71
2021/12/20 01:41:04;;;;;;;4.34;3.75;;;;;;;3.49;77.62;98836.41;455357;114;923227;-71
2021/12/20 01:42:08;;;;;;;4.49;4.18;;;;;;;3.50;77.61;98827.29;442113;118;922968;-70
2021/12/20 01:43:12;;;;;;;4.48;4.18;;;;;;;3.52;77.55;98838.69;441458;118;922756;-71
2021/12/20 01:44:16;;;;;;;5.28;4.88;;;;;;;3.51;77.53;98834.34;448507;115;922557;-71
2021/12/20 01:45:23;;;;;;;7.12;6.48;;;;;;;3.53;77.52;98829.55;440668;117;922845;-71
2021/12/20 01:46:26;;;;;;;7.93;7.19;;;;;;;3.54;77.49;98833.07;441708;116;930725;-71
2021/12/20 01:47:33;;;;;;;7.70;7.09;;;;;;;3.54;77.48;98835.77;442183;118;923048;-71
2021/12/20 01:48:36;;;;;;;7.75;7.15;;;;;;;3.55;77.45;98830.17;440539;116;922619;-71
2021/12/20 01:49:52;;;;;;;7.89;7.29;;;;;;;3.57;77.48;98833.49;443163;116;922935;-71
2021/12/20 01:53:03;;;;;;;4.83;4.43;;;;;;;3.58;77.28;98823.55;443062;116;924216;-71
2021/12/20 01:54:06;;;;;;;4.16;3.86;;;;;;;3.58;77.24;98824.38;439533;118;922521;-71
2021/12/20 01:55:12;;;;;;;4.59;4.18;;;;;;;3.56;77.18;98831.83;446906;116;922594;-72
2021/12/20 01:56:16;;;;;;;4.40;4.02;;;;;;;3.55;77.17;98822.09;462033;112;922486;-72
2021/12/20 01:57:21;;;;;;;4.32;4.02;;;;;;;3.54;77.21;98817.73;462425;111;922974;-72
2021/12/20 01:58:27;;;;;;;3.80;3.55;;;;;;;3.57;77.21;98827.27;462921;112;922845;-73
2021/12/20 01:59:30;;;;;;;4.39;4.09;;;;;;;3.57;77.20;98825.41;462724;112;922983;-70
2021/12/20 02:00:34;;;;;;;3.94;3.64;;;;;;;3.58;77.12;98815.45;463000;114;922539;-70
2021/12/20 02:01:38;;;;;;;3.54;3.24;;;;;;;3.58;77.07;98821.68;463707;111;922849;-73
2021/12/20 02:02:43;;;;;;;3.78;3.48;;;;;;;3.57;77.03;98822.72;463650;111;930675;-70
2021/12/20 02:03:54;;;;;;;3.87;3.57;;;;;;;3.58;77.03;98824.38;463242;111;922628;-71
2021/12/20 02:05:03;;;;;;;4.09;3.76;;;;;;;3.59;77.07;98825.17;463577;114;923190;-72
2021/12/20 02:06:04;;;;;;;6.07;5.67;;;;;;;3.60;77.03;98830.36;457678;113;922899;-71
2021/12/20 02:07:06;;;;;;;5.55;5.10;;;;;;;3.61;77.02;98823.94;457692;112;922564;-72
2021/12/20 02:08:22;;;;;;;11.72;10.81;;;;;;;3.62;77.06;98820.20;460890;112;922501;-69
2021/12/20 02:09:23;;;;;;;11.95;10.94;;;;;;;3.65;77.05;98832.41;460741;112;930319;-72
2021/12/20 02:10:26;;;;;;;10.91;10.12;;;;;;;3.65;77.07;98827.84;460319;111;923029;-72
2021/12/20 02:11:31;;;;;;;9.56;8.79;;;;;;;3.67;77.04;98828.48;461697;112;922647;-72
2021/12/20 02:12:35;;;;;;;9.52;8.76;;;;;;;3.69;77.03;98820.98;460744;113;922559;-72
2021/12/20 02:13:40;;;;;;;7.74;7.14;;;;;;;3.70;76.90;98822.64;462243;112;922534;-72
2021/12/20 02:14:43;;;;;;;6.51;6.01;;;;;;;3.71;76.85;98832.39;460761;111;922966;-72
2021/12/20 02:15:46;;;;;;;4.51;4.15;;;;;;;3.70;76.80;98838.81;460100;112;922555;-71
2021/12/20 02:16:50;;;;;;;4.70;4.40;;;;;;;3.72;76.80;98838.61;461012;112;922549;-71
2021/12/20 02:17:53;;;;;;;4.37;4.00;;;;;;;3.73;76.73;98830.32;459609;112;922681;-71
2021/12/20 02:18:58;;;;;;;4.69;4.39;;;;;;;3.72;76.71;98841.30;462577;112;922702;-71
2021/12/20 02:20:04;;;;;;;4.81;4.42;;;;;;;3.74;76.74;98841.94;461362;112;930635;-72
2021/12/20 02:21:07;;;;;;;4.89;4.49;;;;;;;3.75;76.76;98836.30;462522;111;922986;-71
2021/12/20 02:22:10;;;;;;;4.04;3.72;;;;;;;3.77;76.73;98844.19;461610;113;922542;-71
2021/12/20 02:23:14;;;;;;;4.81;4.51;;;;;;;3.78;76.70;98835.06;462858;112;922515;-71
2021/12/20 02:24:17;;;;;;;3.98;3.68;;;;;;;3.80;76.73;98837.55;462981;112;922709;-70
2021/12/20 02:25:21;;;;;;;3.59;3.29;;;;;;;3.80;76.67;98837.55;461826;112;922573;-72
2021/12/20 02:26:25;;;;;;;4.01;3.71;;;;;;;3.81;76.70;98834.63;463164;113;922440;-71
2021/12/20 02:27:28;;;;;;;4.47;4.07;;;;;;;3.82;76.61;98838.98;464177;112;922519;-72
2021/12/20 02:28:37;;;;;;;4.14;3.80;;;;;;;3.82;76.48;98838.98;463828;111;922601;-71
2021/12/20 02:29:58;;;;;;;4.17;3.79;;;;;;;3.83;76.40;98845.20;463314;113;923005;-72
2021/12/20 02:37:27;;;;;;;4.48;4.17;;;;;;;3.74;76.40;98833.84;461294;112;922742;-71
2021/12/20 02:38:30;;;;;;;4.98;4.58;;;;;;;3.73;76.33;98835.71;460643;113;922707;-71
2021/12/20 02:39:33;;;;;;;4.67;4.27;;;;;;;3.71;76.31;98832.39;462189;111;922818;-71
2021/12/20 02:40:37;;;;;;;4.10;3.78;;;;;;;3.71;76.31;98832.39;460451;112;922604;-71
2021/12/20 02:41:41;;;;;;;4.12;3.78;;;;;;;3.70;76.33;98832.59;462271;112;923334;-70
2021/12/20 02:42:44;;;;;;;4.24;3.94;;;;;;;3.68;76.33;98835.53;461496;112;922709;-71
2021/12/20 02:43:58;;;;;;;4.79;4.41;;;;;;;3.68;76.26;98834.70;461710;113;922521;-71
2021/12/20 02:45:14;;;;;;;4.77;4.38;;;;;;;3.67;76.24;98835.73;462980;112;922533;-71
2021/12/20 02:46:46;;;;;;;4.66;4.27;;;;;;;3.65;76.27;98844.02;462901;112;923013;-71
2021/12/20 02:47:37;;;;;;;4.10;3.78;;;;;;;3.64;76.26;98839.66;460263;113;922757;-71
2021/12/20 02:48:40;;;;;;;5.28;4.86;;;;;;;3.62;76.25;98843.63;463197;114;923076;-72
2021/12/20 02:49:44;;;;;;;4.80;4.47;;;;;;;3.61;76.35;98833.88;463223;113;922536;-71
2021/12/20 02:50:47;;;;;;;5.13;4.73;;;;;;;3.62;76.40;98840.94;463690;112;922979;-72
2021/12/20 02:51:52;;;;;;;4.91;4.58;;;;;;;3.61;76.43;98840.11;464449;111;922669;-72
2021/12/20 02:52:56;;;;;;;5.63;5.17;;;;;;;3.61;76.42;98845.49;461467;112;922607;-72
2021/12/20 02:54:01;;;;;;;5.83;5.31;;;;;;;3.61;76.50;98845.49;458793;113;922559;-72
2021/12/20 02:55:06;;;;;;;9.87;8.98;;;;;;;3.62;76.45;98847.16;461276;112;922566;-72
2021/12/20 02:56:09;;;;;;;8.48;7.80;;;;;;;3.62;76.47;98839.07;459810;112;922614;-70
2021/12/20 02:57:13;;;;;;;9.26;8.53;;;;;;;3.62;76.47;98849.84;457672;114;922957;-73
2021/12/20 02:58:16;;;;;;;8.13;7.49;;;;;;;3.63;76.51;98854.20;459384;113;922644;-71
2021/12/20 02:59:19;;;;;;;7.95;7.35;;;;;;;3.63;76.52;98850.68;460121;113;922558;-71
2021/12/20 03:00:23;;;;;;;7.80;7.20;;;;;;;3.63;76.51;98854.20;453953;115;923255;-70
2021/12/20 03:01:27;;;;;;;7.96;7.32;;;;;;;3.63;76.60;98848.81;454618;114;931006;-71
2021/12/20 03:02:30;;;;;;;7.21;6.70;;;;;;;3.64;76.74;98855.84;454160;116;930551;-71
2021/12/20 03:03:33;;;;;;;7.16;6.61;;;;;;;3.64;76.88;98861.23;440985;117;922639;-72
2021/12/20 03:04:37;;;;;;;8.85;8.15;;;;;;;3.65;76.88;98856.66;449263;116;922725;-71
2021/12/20 03:05:40;;;;;;;8.25;7.59;;;;;;;3.64;76.97;98858.53;448608;117;922516;-71
2021/12/20 03:06:47;;;;;;;7.85;7.25;;;;;;;3.63;77.07;98859.59;449686;116;922789;-71
2021/12/20 03:07:54;;;;;;;7.24;6.68;;;;;;;3.61;77.15;98858.97;443567;117;922660;-71
2021/12/20 03:08:58;;;;;;;6.65;6.15;;;;;;;3.60;77.17;98870.78;446279;116;922711;-71
2021/12/20 03:10:04;;;;;;;5.61;5.16;;;;;;;3.60;77.27;98875.34;453621;114;922672;-71
2021/12/20 03:11:07;;;;;;;6.79;6.31;;;;;;;3.56;77.28;98877.64;453617;115;922933;-71
2021/12/20 03:12:13;;;;;;;6.46;5.64;;;;;;;3.54;77.28;98882.41;447675;115;922598;-71
2021/12/20 03:13:16;;;;;;;5.17;4.76;;;;;;;3.52;77.26;98875.59;451414;114;922797;-72
2021/12/20 03:14:26;;;;;;;5.25;4.82;;;;;;;3.48;77.21;98880.55;448427;116;922765;-71
2021/12/20 03:15:27;;;;;;;4.91;4.51;;;;;;;3.44;77.00;98881.19;448851;115;922668;-71
2021/12/20 03:16:30;;;;;;;4.11;3.81;;;;;;;3.38;77.08;98879.33;449656;115;922825;-71
2021/12/20 03:17:33;;;;;;;4.84;4.46;;;;;;;3.31;77.09;98882.86;450518;115;923078;-71
2021/12/20 03:18:36;;;;;;;4.08;3.78;;;;;;;3.26;77.15;98884.52;448578;116;922612;-71
2021/12/20 03:19:40;;;;;;;4.94;4.58;;;;;;;3.21;77.29;98884.33;450140;115;923293;-71
2021/12/20 03:20:44;;;;;;;4.80;4.40;;;;;;;3.15;77.39;98887.85;451850;114;922565;-71
2021/12/20 03:21:48;;;;;;;4.79;4.48;;;;;;;3.10;77.52;98890.34;451273;115;922690;-70
2021/12/20 03:22:51;;;;;;;4.79;4.34;;;;;;;3.06;77.68;98889.94;451063;116;922603;-70
2021/12/20 03:23:54;;;;;;;5.26;4.04;;;;;;;3.03;77.83;98894.92;450991;115;922978;-70
2021/12/20 03:24:58;;;;;;;5.41;4.14;;;;;;;2.99;77.87;98891.80;452564;114;922740;-70
2021/12/20 03:26:01;;;;;;;5.55;4.03;;;;;;;2.97;77.98;98901.13;452567;115;922744;-71
2021/12/20 03:27:06;;;;;;;3.67;3.12;;;;;;;2.94;78.06;98905.89;452879;115;923057;-71
2021/12/20 03:28:09;;;;;;;6.56;3.84;;;;;;;2.92;78.14;98902.56;452303;115;923007;-71
2021/12/20 03:29:12;;;;;;;3.96;3.60;;;;;;;2.92;78.18;98904.45;453079;114;922606;-71
2021/12/20 03:30:17;;;;;;;3.67;3.36;;;;;;;2.92;78.28;98904.45;452280;116;923954;-70
2021/12/20 03:31:21;;;;;;;3.89;3.47;;;;;;;2.91;78.29;98905.48;453443;115;922751;-70
2021/12/20 03:32:24;;;;;;;3.54;3.24;;;;;;;2.89;78.30;98910.23;448427;116;923858;-72
2021/12/20 03:33:27;;;;;;;3.29;2.98;;;;;;;2.87;78.40;98896.97;450822;114;923116;-72
2021/12/20 03:34:31;;;;;;;3.47;3.20;;;;;;;2.85;78.45;98901.75;449193;115;922622;-70
2021/12/20 03:35:34;;;;;;;3.14;2.92;;;;;;;2.85;78.52;98904.45;449322;114;922736;-71
2021/12/20 03:36:37;;;;;;;3.39;3.09;;;;;;;2.83;78.54;98905.67;446757;117;922610;-70
2021/12/20 03:37:41;;;;;;;2.95;2.75;;;;;;;2.81;78.58;98905.87;441207;117;923153;-71
2021/12/20 03:38:44;;;;;;;2.55;2.38;;;;;;;2.80;78.59;98912.31;449832;115;930502;-70
2021/12/20 03:39:48;;;;;;;3.28;2.98;;;;;;;2.77;78.56;98904.63;451535;116;922825;-71
2021/12/20 03:40:51;;;;;;;3.35;3.12;;;;;;;2.76;78.52;98911.04;448877;116;922507;-71
2021/12/20 03:41:54;;;;;;;2.75;2.55;;;;;;;2.74;78.63;98907.75;450090;115;930514;-71
2021/12/20 03:42:58;;;;;;;2.92;2.72;;;;;;;2.73;78.78;98900.70;454183;116;922868;-71
2021/12/20 03:44:01;;;;;;;2.93;2.54;;;;;;;2.71;78.88;98905.45;447642;116;922655;-71
2021/12/20 03:45:05;;;;;;;2.68;2.49;;;;;;;2.73;78.85;98905.25;446645;116;930437;-71
2021/12/20 03:46:09;;;;;;;2.64;2.45;;;;;;;2.72;78.87;98899.04;452228;115;925480;-70
2021/12/20 03:47:13;;;;;;;2.68;2.48;;;;;;;2.73;78.91;98908.77;445703;117;922631;-70
2021/12/20 03:48:16;;;;;;;2.15;1.93;;;;;;;2.72;78.88;98906.28;449897;117;922595;-70
2021/12/20 03:49:19;;;;;;;2.93;2.22;;;;;;;2.72;78.92;98907.11;445105;117;922754;-71
2021/12/20 03:50:24;;;;;;;2.23;2.13;;;;;;;2.73;78.92;98916.02;449258;115;923156;-70
2021/12/20 03:51:27;;;;;;;2.36;2.16;;;;;;;2.71;78.92;98916.21;450516;115;930408;-72
2021/12/20 03:52:30;;;;;;;2.23;2.04;;;;;;;2.72;78.86;98915.19;445572;116;922616;-70
2021/12/20 03:53:34;;;;;;;2.33;2.14;;;;;;;2.70;78.89;98909.17;447484;116;922658;-71
2021/12/20 03:54:38;;;;;;;2.17;1.98;;;;;;;2.71;78.92;98918.91;452709;116;930378;-71
2021/12/20 03:55:41;;;;;;;2.21;2.02;;;;;;;2.71;78.97;98916.21;450910;115;922946;-71
2021/12/20 03:56:46;;;;;;;1.96;1.86;;;;;;;2.72;78.91;98914.36;440827;117;922786;-71
2021/12/20 03:57:50;;;;;;;2.47;2.27;;;;;;;2.72;78.92;98914.36;461065;113;922723;-71
2021/12/20 03:58:53;;;;;;;1.62;1.48;;;;;;;2.72;78.77;98919.73;460505;113;930424;-71
2021/12/20 03:59:56;;;;;;;1.71;1.61;;;;;;;2.71;78.49;98912.69;459552;112;930371;-71
2021/12/20 04:01:03;;;;;;;1.46;1.36;;;;;;;2.69;78.36;98910.23;462054;112;923347;-71
2021/12/20 04:02:07;;;;;;;1.31;1.21;;;;;;;2.65;78.22;98908.12;461624;112;923239;-71
2021/12/20 04:03:13;;;;;;;1.55;1.45;;;;;;;2.62;78.18;98913.93;460785;112;922506;-72
2021/12/20 04:04:16;;;;;;;1.39;1.29;;;;;;;2.59;78.15;98915.19;459738;112;922951;-71
2021/12/20 04:05:19;;;;;;;1.61;1.51;;;;;;;2.56;78.15;98917.44;460556;111;922580;-72
2021/12/20 04:06:23;;;;;;;1.24;1.08;;;;;;;2.54;78.10;98914.94;451133;114;922577;-71
2021/12/20 04:07:26;;;;;;;1.11;1.02;;;;;;;2.50;78.01;98911.84;462020;113;922681;-72
2021/12/20 04:08:30;;;;;;;0.99;0.81;;;;;;;2.48;78.00;98921.16;461504;112;922647;-72
2021/12/20 04:09:33;;;;;;;0.87;0.87;;;;;;;2.43;77.91;98916.37;462070;112;930253;-72
2021/12/20 04:10:36;;;;;;;0.85;0.85;;;;;;;2.42;77.84;98921.97;463145;111;922857;-71
2021/12/20 04:11:40;;;;;;;0.84;0.84;;;;;;;2.38;77.82;98915.31;462143;112;923766;-71
2021/12/20 04:12:43;;;;;;;0.80;0.80;;;;;;;2.34;77.85;98922.14;463378;112;922587;-71
2021/12/20 04:13:46;;;;;;;0.93;0.91;;;;;;;2.31;77.85;98917.18;462202;113;922587;-71
2021/12/20 04:14:49;;;;;;;0.78;0.76;;;;;;;2.28;77.81;98925.64;454246;114;930342;-70
2021/12/20 04:15:53;;;;;;;0.81;0.81;;;;;;;2.27;77.87;98929.35;454934;114;923524;-73
2021/12/20 04:16:57;;;;;;;1.05;0.83;;;;;;;2.24;77.90;98933.29;463888;113;922725;-71
2021/12/20 04:18:01;;;;;;;1.37;1.13;;;;;;;2.22;77.73;98937.20;463700;112;922557;-71
2021/12/20 04:19:05;;;;;;;1.20;1.10;;;;;;;2.20;77.53;98934.73;461937;111;930316;-72
2021/12/20 04:20:09;;;;;;;1.01;0.81;;;;;;;2.19;77.62;98934.92;460419;112;930089;-71
2021/12/20 04:21:13;;;;;;;1.14;1.04;;;;;;;2.17;77.66;98942.34;458612;113;922679;-71
2021/12/20 04:22:18;;;;;;;0.67;0.64;;;;;;;2.15;77.66;98936.36;460954;111;922516;-69
2021/12/20 04:23:21;;;;;;;1.00;0.90;;;;;;;2.12;77.62;98942.95;461074;112;922543;-70
2021/12/20 04:24:24;;;;;;;1.41;0.91;;;;;;;2.12;77.65;98937.58;459377;112;922656;-71
2021/12/20 04:25:27;;;;;;;1.12;1.02;;;;;;;2.10;77.56;98942.31;460600;113;922688;-71
2021/12/20 04:26:31;;;;;;;0.88;0.82;;;;;;;2.08;77.53;98947.92;461071;111;923059;-71
2021/12/20 04:27:34;;;;;;;0.99;0.99;;;;;;;2.08;77.52;98955.15;461147;112;922726;-71
2021/12/20 04:28:38;;;;;;;0.86;0.86;;;;;;;2.07;77.57;98953.48;461086;112;923123;-71
2021/12/20 04:29:41;;;;;;;1.12;1.07;;;;;;;2.08;77.58;98955.15;462777;112;930201;-71
2021/12/20 04:30:44;;;;;;;1.41;1.31;;;;;;;2.08;77.66;98955.15;461701;111;923148;-72
2021/12/20 04:31:47;;;;;;;1.42;1.28;;;;;;;2.10;77.62;98958.45;462055;112;923147;-72
2021/12/20 04:32:51;;;;;;;1.46;1.36;;;;;;;2.09;77.62;98957.61;461621;113;922885;-71
2021/12/20 04:33:54;;;;;;;1.34;1.18;;;;;;;2.13;77.64;98965.30;462548;112;930248;-71
2021/12/20 04:34:57;;;;;;;1.16;1.06;;;;;;;2.14;77.65;98965.11;462240;112;926921;-72
2021/12/20 04:36:01;;;;;;;0.89;0.89;;;;;;;2.17;77.56;98966.55;463723;112;922787;-71
2021/12/20 04:37:06;;;;;;;1.20;1.11;;;;;;;2.18;77.51;98971.73;463358;113;922600;-71
2021/12/20 04:38:10;;;;;;;1.41;1.31;;;;;;;2.20;77.42;98980.44;462599;111;922593;-71
2021/12/20 04:39:14;;;;;;;1.61;1.32;;;;;;;2.23;77.36;98984.57;464209;111;922386;-69
2021/12/20 04:40:21;;;;;;;1.45;1.35;;;;;;;2.24;77.40;98986.23;463039;111;922930;-71
2021/12/20 04:41:23;;;;;;;1.50;1.40;;;;;;;2.26;77.08;98987.67;464467;111;922502;-71
2021/12/20 04:42:26;;;;;;;1.61;1.36;;;;;;;2.26;77.04;98992.26;462167;112;922974;-70
2021/12/20 04:43:30;;;;;;;1.54;1.44;;;;;;;2.27;76.92;98992.03;461735;112;922663;-71
2021/12/20 04:44:33;;;;;;;1.29;1.19;;;;;;;2.28;76.92;98998.24;460579;113;922685;-70
2021/12/20 04:45:37;;;;;;;1.30;1.20;;;;;;;2.29;76.94;99005.28;461834;112;923113;-71
2021/12/20 04:46:40;;;;;;;1.04;0.88;;;;;;;2.31;76.96;99008.62;459131;112;922762;-71
2021/12/20 04:47:43;;;;;;;1.21;1.11;;;;;;;2.31;76.85;99001.38;460234;111;930081;-71
2021/12/20 04:48:47;;;;;;;1.35;1.25;;;;;;;2.33;76.80;99015.44;462112;111;922680;-72
2021/12/20 04:49:50;;;;;;;0.89;0.89;;;;;;;2.35;76.80;99001.80;463532;111;922443;-72
2021/12/20 04:50:53;;;;;;;1.65;1.31;;;;;;;2.36;76.79;99012.37;462700;112;923563;-71
2021/12/20 04:51:57;;;;;;;1.24;1.14;;;;;;;2.38;76.80;99001.38;460501;114;922750;-71
2021/12/20 04:53:00;;;;;;;1.15;1.06;;;;;;;2.40;76.74;99012.78;461120;112;923284;-71
2021/12/20 04:54:04;;;;;;;0.98;0.98;;;;;;;2.40;76.68;99002.86;462288;112;922557;-71
2021/12/20 04:55:09;;;;;;;1.29;1.19;;;;;;;2.42;76.63;99021.49;462095;113;922484;-72
2021/12/20 04:56:13;;;;;;;1.29;1.14;;;;;;;2.43;76.53;99018.58;461998;112;922711;-71
2021/12/20 04:57:17;;;;;;;1.66;1.56;;;;;;;2.44;76.52;99016.72;461573;111;923449;-70
2021/12/20 04:58:20;;;;;;;1.47;1.37;;;;;;;2.45;76.54;99019.22;460491;114;922485;-72
2021/12/20 04:59:24;;;;;;;1.32;1.07;;;;;;;2.47;76.42;99019.03;461035;114;923055;-71
2021/12/20 05:00:33;;;;;;;1.22;1.12;;;;;;;2.47;76.31;99019.86;461285;113;923539;-73
2021/12/20 05:01:37;;;;;;;1.59;1.28;;;;;;;2.47;76.11;99024.41;461266;114;922580;-71
2021/12/20 05:02:40;;;;;;;1.69;1.27;;;;;;;2.46;76.02;99023.58;461396;113;922440;-71
2021/12/20 05:03:43;;;;;;;1.56;1.29;;;;;;;2.47;76.06;99025.23;461237;113;922533;-72
2021/12/20 05:04:47;;;;;;;1.78;1.12;;;;;;;2.49;76.07;99028.53;461725;113;922894;-71
2021/12/20 05:05:50;;;;;;;1.47;1.08;;;;;;;2.50;76.06;99037.44;461382;113;923015;-71
2021/12/20 05:06:54;;;;;;;1.56;1.42;;;;;;;2.50;75.90;99030.20;459989;114;922488;-71
2021/12/20 05:07:57;;;;;;;1.47;1.29;;;;;;;2.51;75.86;99036.42;460015;114;923530;-70
2021/12/20 05:09:04;;;;;;;1.49;1.31;;;;;;;2.51;75.86;99031.03;460503;114;922999;-71
2021/12/20 05:10:13;;;;;;;1.51;1.38;;;;;;;2.52;75.71;99035.39;460522;112;922635;-70
2021/12/20 05:11:16;;;;;;;1.68;1.51;;;;;;;2.51;75.64;99031.87;460500;113;922464;-71
2021/12/20 05:12:19;;;;;;;1.59;1.31;;;;;;;2.37;76.02;99035.52;460719;113;922450;-71
2021/12/20 05:13:23;;;;;;;1.37;1.26;;;;;;;2.36;76.18;99035.73;460786;114;930531;-71